Weather at Glendale Municipal Airport

Public forecast

Using degrees Fahrenheit for public forecast. Weather courtesy of forecast.io.

Current aviation weather report (METAR) for Glendale Municipal Airport

Retrieved 2020/09/21 12:56 UTC (50 minutes ago):

KGEU 211256Z 00000KT 10SM SCT160 BKN200 26/07 A2989 RMK FIRST

Closest aviation forecast (TAF) to Glendale Municipal Airport

Closest forecast is Luke Air Force Base, 4.4 nm (8.2 km) W. Retrieved 2020/09/21 12:14 UTC (2 hours ago):

TAF KLUF 211200Z 2112/2218 VRB06KT 9999 BKN140 QNH2987INS BECMG 2121/2122 23009KT 9999 VCSH SCT110 QNH2979INS BECMG 2202/2203 VRB06KT 9999 NSW SCT150 QNH2982INS TX39/2121Z TN21/2212Z